createdAt,value
2019-03-18T00:01:15.719Z,1.37
2019-03-18T00:03:49.322Z,1.47
2019-03-18T00:06:22.921Z,1.50
2019-03-18T00:08:56.583Z,1.83
2019-03-18T00:11:30.140Z,1.30
2019-03-18T00:14:03.939Z,1.90
2019-03-18T00:16:37.568Z,1.63
2019-03-18T00:19:11.086Z,1.40
2019-03-18T00:21:44.690Z,1.40
2019-03-18T00:24:18.389Z,1.33
2019-03-18T00:26:51.958Z,1.83
2019-03-18T00:29:25.549Z,1.77
2019-03-18T00:31:59.152Z,1.37
2019-03-18T00:34:32.714Z,1.47
2019-03-18T00:37:06.229Z,2.03
2019-03-18T00:39:40.073Z,1.20
2019-03-18T00:42:13.668Z,1.13
2019-03-18T00:44:47.212Z,1.47
2019-03-18T00:47:20.817Z,1.50
2019-03-18T00:49:54.393Z,1.20
2019-03-18T00:52:27.998Z,0.93
2019-03-18T00:55:01.653Z,1.57
2019-03-18T00:57:35.381Z,1.60
2019-03-18T01:00:14.874Z,1.87
2019-03-18T01:02:49.771Z,1.87
2019-03-18T01:05:23.665Z,1.83
2019-03-18T01:07:57.553Z,1.60
2019-03-18T01:10:31.107Z,1.70
2019-03-18T01:13:04.765Z,1.80
2019-03-18T01:15:38.385Z,1.50
2019-03-18T01:18:11.982Z,1.70
2019-03-18T01:20:45.601Z,2.10
2019-03-18T01:23:19.165Z,1.90
2019-03-18T01:25:53.858Z,2.03
2019-03-18T01:28:27.420Z,1.70
2019-03-18T01:31:00.946Z,2.27
2019-03-18T01:33:34.689Z,1.90
2019-03-18T01:36:08.325Z,2.60
2019-03-18T01:38:41.857Z,2.27
2019-03-18T01:41:15.419Z,2.50
2019-03-18T01:43:49.041Z,2.23
2019-03-18T01:46:22.613Z,2.33
2019-03-18T01:48:56.181Z,2.43
2019-03-18T01:51:29.779Z,2.63
2019-03-18T01:54:04.547Z,2.17
2019-03-18T01:56:38.122Z,2.63
2019-03-18T01:59:11.721Z,3.17
2019-03-18T02:01:45.220Z,2.97
2019-03-18T02:04:18.817Z,3.20
2019-03-18T02:06:52.420Z,3.13
2019-03-18T02:09:26.012Z,2.43
2019-03-18T02:11:59.582Z,3.20
2019-03-18T02:14:33.177Z,3.07
2019-03-18T02:17:06.773Z,3.17
2019-03-18T02:19:40.348Z,2.93
2019-03-18T02:22:13.942Z,2.67
2019-03-18T02:24:47.517Z,3.30
2019-03-18T02:27:21.180Z,3.60
2019-03-18T02:29:54.742Z,3.37
2019-03-18T02:32:28.420Z,3.67
2019-03-18T02:35:02.003Z,3.40
2019-03-18T02:37:35.603Z,3.20
2019-03-18T02:40:11.173Z,3.27
2019-03-18T02:42:44.765Z,3.20
2019-03-18T02:45:18.354Z,2.97
2019-03-18T02:47:51.924Z,3.03
2019-03-18T02:50:25.780Z,3.20
2019-03-18T02:52:59.354Z,2.37
2019-03-18T02:55:32.945Z,3.37
2019-03-18T02:58:06.564Z,3.13
2019-03-18T03:00:40.123Z,3.07
2019-03-18T03:03:13.784Z,2.70
2019-03-18T03:05:47.480Z,2.97
2019-03-18T03:08:21.035Z,2.90
2019-03-18T03:10:54.608Z,2.80
2019-03-18T03:13:28.291Z,2.40
2019-03-18T03:16:01.844Z,2.27
2019-03-18T03:18:35.450Z,2.57
2019-03-18T03:21:09.008Z,2.37
2019-03-18T03:23:42.619Z,2.07
2019-03-18T03:26:16.502Z,1.90
2019-03-18T03:28:50.160Z,2.13
2019-03-18T03:31:23.744Z,2.10
2019-03-18T03:33:57.407Z,1.80
2019-03-18T03:36:31.228Z,1.57
2019-03-18T03:39:06.439Z,2.10
2019-03-18T03:41:40.038Z,2.20
2019-03-18T03:44:13.609Z,3.20
2019-03-18T03:46:47.210Z,2.50
2019-03-18T03:49:20.777Z,2.27
2019-03-18T03:51:54.375Z,2.13
2019-03-18T03:54:27.990Z,1.80
2019-03-18T03:57:01.624Z,1.60
2019-03-18T03:59:35.460Z,2.00
2019-03-18T04:02:09.028Z,2.23
2019-03-18T04:04:42.707Z,2.27
2019-03-18T04:07:17.296Z,2.30
2019-03-18T04:09:51.229Z,1.90
2019-03-18T04:12:24.724Z,2.17
2019-03-18T04:14:58.321Z,1.73
2019-03-18T04:17:31.901Z,2.07
2019-03-18T04:20:08.626Z,1.97
2019-03-18T04:22:42.259Z,1.80
2019-03-18T04:25:16.079Z,1.97
2019-03-18T04:27:49.656Z,1.90
2019-03-18T04:30:23.253Z,1.70
2019-03-18T04:32:56.835Z,1.70
2019-03-18T04:35:30.425Z,1.60
2019-03-18T04:38:04.130Z,1.83
2019-03-18T04:40:37.769Z,1.53
2019-03-18T04:43:11.290Z,1.57
2019-03-18T04:45:44.959Z,1.30
2019-03-18T04:48:18.580Z,1.67
2019-03-18T04:50:52.121Z,1.00
2019-03-18T04:53:25.683Z,1.80
2019-03-18T04:55:59.487Z,1.87
2019-03-18T04:58:33.101Z,1.63
2019-03-18T05:01:06.739Z,1.43
2019-03-18T05:03:40.480Z,1.33
2019-03-18T05:06:14.434Z,1.90
2019-03-18T05:08:48.076Z,1.47
2019-03-18T05:11:21.680Z,1.27
2019-03-18T05:13:55.245Z,1.17
2019-03-18T05:16:28.881Z,1.17
2019-03-18T05:19:02.555Z,1.57
2019-03-18T05:21:36.155Z,1.23
2019-03-18T05:24:09.791Z,1.17
2019-03-18T05:26:43.387Z,1.00
2019-03-18T05:29:16.985Z,1.87
2019-03-18T05:31:50.470Z,0.90
2019-03-18T05:34:24.007Z,0.93
2019-03-18T05:36:57.870Z,1.23
2019-03-18T05:39:31.426Z,1.10
2019-03-18T05:42:05.096Z,1.30
2019-03-18T05:44:38.618Z,1.17
2019-03-18T05:47:12.183Z,1.13
2019-03-18T05:49:45.777Z,1.37
2019-03-18T05:52:19.344Z,1.03
2019-03-18T05:54:52.967Z,1.33
2019-03-18T05:57:26.534Z,0.93
2019-03-18T06:00:00.257Z,0.67
2019-03-18T06:02:33.958Z,1.00
2019-03-18T06:05:07.951Z,0.73
2019-03-18T06:07:41.476Z,1.23
2019-03-18T06:10:15.075Z,1.60
2019-03-18T06:12:48.665Z,0.87
2019-03-18T06:15:22.246Z,1.30
2019-03-18T06:17:55.905Z,1.70
2019-03-18T06:20:29.498Z,1.53
2019-03-18T06:23:03.097Z,1.17
2019-03-18T06:25:36.761Z,1.17
2019-03-18T06:28:10.351Z,1.57
2019-03-18T06:30:43.948Z,0.93
2019-03-18T06:33:17.634Z,1.17
2019-03-18T06:35:51.198Z,1.23
2019-03-18T06:38:24.852Z,1.20
2019-03-18T06:40:58.500Z,1.50
2019-03-18T06:43:32.099Z,0.80
2019-03-18T06:46:05.642Z,1.40
2019-03-18T06:48:39.218Z,1.63
2019-03-18T06:51:12.809Z,1.37
2019-03-18T06:53:46.375Z,1.80
2019-03-18T06:56:20.071Z,1.40
2019-03-18T06:58:53.570Z,1.10
2019-03-18T07:01:27.167Z,1.80
2019-03-18T07:04:00.734Z,1.17
2019-03-18T07:06:34.324Z,1.57
2019-03-18T07:09:07.886Z,1.67
2019-03-18T07:11:41.488Z,1.67
2019-03-18T07:14:15.259Z,1.70
2019-03-18T07:16:49.125Z,1.77
2019-03-18T07:19:22.679Z,1.97
2019-03-18T07:21:56.286Z,1.33
2019-03-18T07:24:30.043Z,1.20
2019-03-18T07:27:03.604Z,1.43
2019-03-18T07:29:37.134Z,1.83
2019-03-18T07:32:10.706Z,1.70
2019-03-18T07:34:44.313Z,1.20
2019-03-18T07:37:17.906Z,1.83
2019-03-18T07:39:51.475Z,1.40
2019-03-18T07:42:25.070Z,1.40
2019-03-18T07:44:58.666Z,1.30
2019-03-18T07:47:32.269Z,1.67
2019-03-18T07:50:09.222Z,2.07
2019-03-18T07:52:42.860Z,1.63
2019-03-18T07:55:16.456Z,2.07
2019-03-18T07:57:51.130Z,2.47
2019-03-18T08:00:24.984Z,2.53
2019-03-18T08:02:58.591Z,2.30
2019-03-18T08:05:32.089Z,1.57
2019-03-18T08:08:05.753Z,2.17
2019-03-18T08:10:39.356Z,2.13
2019-03-18T08:13:13.293Z,2.10
2019-03-18T08:15:46.893Z,1.43
2019-03-18T08:18:20.469Z,1.47
2019-03-18T08:20:54.136Z,1.80
2019-03-18T08:23:27.701Z,1.60
2019-03-18T08:26:01.237Z,2.27
2019-03-18T08:28:34.746Z,2.10
2019-03-18T08:31:08.425Z,1.80
2019-03-18T08:33:41.995Z,1.37
2019-03-18T08:36:15.660Z,1.13
2019-03-18T08:38:49.223Z,1.40
2019-03-18T08:41:22.839Z,1.20
2019-03-18T08:43:56.392Z,0.93
2019-03-18T08:46:29.984Z,1.00
2019-03-18T08:49:03.565Z,1.03
2019-03-18T08:51:37.144Z,1.27
2019-03-18T08:54:10.739Z,1.33
2019-03-18T08:56:44.610Z,1.60
2019-03-18T08:59:18.252Z,1.07
2019-03-18T09:01:51.856Z,1.77
2019-03-18T09:04:25.452Z,0.90
2019-03-18T09:06:59.175Z,1.07
2019-03-18T09:09:32.772Z,1.10
2019-03-18T09:12:06.263Z,1.07
2019-03-18T09:14:39.849Z,1.50
2019-03-18T09:17:13.436Z,1.67
2019-03-18T09:19:46.994Z,1.87
2019-03-18T09:22:20.860Z,1.20
2019-03-18T09:24:54.500Z,1.63
2019-03-18T09:27:28.110Z,1.10
2019-03-18T09:30:01.684Z,1.87
2019-03-18T09:32:35.926Z,1.40
2019-03-18T09:35:10.234Z,1.87
2019-03-18T09:37:44.419Z,1.87
2019-03-18T09:40:18.616Z,3.77
2019-03-18T09:42:52.432Z,1.67
2019-03-18T09:45:26.044Z,2.20
2019-03-18T09:47:59.605Z,1.93
2019-03-18T09:50:33.124Z,1.67
2019-03-18T09:53:07.270Z,1.90
2019-03-18T09:55:41.460Z,1.65
2019-03-18T09:58:15.084Z,2.08
2019-03-18T10:00:48.965Z,1.63
2019-03-18T10:03:23.129Z,2.00
2019-03-18T10:05:57.286Z,1.30
2019-03-18T10:08:30.886Z,1.47
2019-03-18T10:11:04.471Z,1.73
2019-03-18T10:13:38.037Z,1.30
2019-03-18T10:16:12.192Z,1.47
2019-03-18T10:18:45.676Z,1.20
2019-03-18T10:21:19.279Z,1.30
2019-03-18T10:23:52.843Z,1.20
2019-03-18T10:26:26.423Z,1.63
2019-03-18T10:28:59.984Z,1.53
2019-03-18T10:31:33.587Z,1.53
2019-03-18T10:34:07.265Z,1.47
2019-03-18T10:36:40.904Z,1.07
2019-03-18T10:39:15.079Z,1.65
2019-03-18T10:41:49.365Z,1.55
2019-03-18T10:44:23.559Z,1.40
2019-03-18T10:46:57.765Z,0.88
2019-03-18T10:49:32.559Z,1.10
2019-03-18T10:52:06.704Z,1.20
2019-03-18T10:54:40.931Z,1.45
2019-03-18T10:57:15.103Z,1.15
2019-03-18T10:59:48.694Z,1.33
2019-03-18T11:02:22.332Z,2.00
2019-03-18T11:04:55.946Z,1.27
2019-03-18T11:07:29.512Z,1.60
2019-03-18T11:10:03.646Z,1.20
2019-03-18T11:12:37.233Z,1.60
2019-03-18T11:15:21.515Z,1.90
2019-03-18T11:20:27.829Z,1.10
2019-03-18T11:23:01.329Z,1.63
2019-03-18T11:25:34.927Z,1.50
2019-03-18T11:28:08.523Z,1.10
2019-03-18T11:30:42.017Z,1.43
2019-03-18T11:33:15.614Z,2.27
2019-03-18T11:35:50.025Z,1.73
2019-03-18T11:38:23.634Z,1.87
2019-03-18T11:40:57.205Z,1.90
2019-03-18T11:43:30.813Z,1.83
2019-03-18T11:46:04.451Z,1.97
2019-03-18T11:48:38.114Z,1.83
2019-03-18T11:51:11.732Z,1.43
2019-03-18T11:53:45.415Z,1.70
2019-03-18T11:56:18.976Z,1.50
2019-03-18T11:58:52.839Z,1.60
2019-03-18T12:01:26.409Z,2.10
2019-03-18T12:04:00.025Z,1.27
2019-03-18T12:06:33.686Z,0.70
2019-03-18T12:09:08.185Z,1.97
2019-03-18T12:11:41.729Z,1.40
2019-03-18T12:14:15.226Z,2.10
2019-03-18T12:16:48.830Z,1.20
2019-03-18T12:19:23.275Z,1.63
2019-03-18T12:21:56.872Z,1.77
2019-03-18T12:24:30.495Z,1.17
2019-03-18T12:27:04.093Z,2.33
2019-03-18T12:29:37.733Z,1.83
2019-03-18T12:32:11.384Z,1.37
2019-03-18T12:34:44.912Z,2.03
2019-03-18T12:37:18.592Z,1.40
2019-03-18T12:39:52.205Z,1.07
2019-03-18T12:42:25.866Z,1.63
2019-03-18T12:44:59.441Z,1.43
2019-03-18T12:47:33.359Z,1.13
2019-03-18T12:50:12.612Z,1.10
2019-03-18T12:52:46.346Z,1.20
2019-03-18T12:55:19.968Z,1.03
2019-03-18T12:57:53.566Z,0.80
2019-03-18T13:00:29.074Z,1.40
2019-03-18T13:03:02.764Z,0.90
2019-03-18T13:05:36.344Z,1.70
2019-03-18T13:08:09.984Z,0.83
2019-03-18T13:10:43.692Z,0.73
2019-03-18T13:13:17.562Z,1.20
2019-03-18T13:15:51.135Z,0.97
2019-03-18T13:18:24.741Z,1.50
2019-03-18T13:21:07.259Z,0.80
2019-03-18T13:23:33.569Z,1.13
2019-03-18T13:26:07.184Z,1.00
2019-03-18T13:28:40.957Z,1.13
2019-03-18T13:33:47.335Z,1.67
2019-03-18T13:36:21.013Z,1.17
2019-03-18T13:38:54.674Z,1.37
2019-03-18T13:41:28.271Z,1.20
2019-03-18T13:44:02.111Z,0.77
2019-03-18T13:46:35.983Z,0.70
2019-03-18T13:49:09.621Z,1.17
2019-03-18T13:51:43.213Z,0.93
2019-03-18T13:54:16.781Z,1.20
2019-03-18T13:56:50.309Z,0.93
2019-03-18T13:59:23.908Z,0.90
2019-03-18T14:01:57.468Z,1.13
2019-03-18T14:04:31.069Z,1.37
2019-03-18T14:07:04.772Z,0.70
2019-03-18T14:09:38.317Z,0.90
2019-03-18T14:12:11.885Z,0.77
2019-03-18T14:14:45.477Z,0.90
2019-03-18T14:17:19.038Z,0.40
2019-03-18T14:19:52.703Z,0.83
2019-03-18T14:22:26.196Z,0.77
2019-03-18T14:24:59.821Z,1.40
2019-03-18T14:27:33.346Z,1.37
2019-03-18T14:30:15.301Z,1.37
2019-03-18T14:32:48.895Z,1.20
2019-03-18T14:35:22.507Z,1.50
2019-03-18T14:37:56.355Z,1.30
2019-03-18T14:40:30.536Z,1.70
2019-03-18T14:43:04.095Z,1.67
2019-03-18T14:45:37.676Z,1.70
2019-03-18T14:48:11.650Z,1.50
2019-03-18T14:50:45.253Z,1.50
2019-03-18T14:53:18.831Z,1.33
2019-03-18T14:55:54.693Z,1.10
2019-03-18T14:58:27.910Z,1.70
2019-03-18T15:01:01.557Z,1.40
2019-03-18T15:03:35.125Z,1.83
2019-03-18T15:06:08.730Z,3.03
2019-03-18T15:08:42.327Z,1.00
2019-03-18T15:11:15.852Z,1.00
2019-03-18T15:13:51.389Z,1.60
2019-03-18T15:16:24.661Z,2.13
2019-03-18T15:18:58.226Z,2.10
2019-03-18T15:21:31.823Z,2.00
2019-03-18T15:24:16.511Z,1.90
2019-03-18T15:26:40.650Z,1.83
2019-03-18T15:29:14.320Z,1.50
2019-03-18T15:31:48.172Z,1.60
2019-03-18T15:34:21.834Z,1.93
2019-03-18T15:36:55.432Z,1.53
2019-03-18T15:39:29.035Z,2.50
2019-03-18T15:42:02.631Z,1.70
2019-03-18T15:44:36.184Z,2.10
2019-03-18T15:47:09.700Z,1.87
2019-03-18T15:49:43.505Z,1.80
2019-03-18T15:52:17.065Z,1.57
2019-03-18T15:54:53.963Z,1.57
2019-03-18T15:57:29.931Z,1.60
2019-03-18T16:00:01.456Z,1.70
2019-03-18T16:02:35.030Z,2.03
2019-03-18T16:05:09.068Z,2.20
2019-03-18T16:07:42.916Z,2.03
2019-03-18T16:10:18.504Z,2.40
2019-03-18T16:12:52.105Z,1.83
2019-03-18T16:15:25.679Z,2.67
2019-03-18T16:17:59.366Z,2.23
2019-03-18T16:20:32.975Z,1.77
2019-03-18T16:23:06.638Z,2.77
2019-03-18T16:25:40.239Z,2.13
2019-03-18T16:28:13.862Z,1.67
2019-03-18T16:30:47.461Z,1.97
2019-03-18T16:33:21.139Z,1.60
2019-03-18T16:35:57.667Z,1.53
2019-03-18T16:38:31.264Z,1.97
2019-03-18T16:41:05.210Z,1.77
2019-03-18T16:43:38.771Z,1.30
2019-03-18T16:46:12.359Z,1.50
2019-03-18T16:48:45.881Z,1.80
2019-03-18T16:51:19.461Z,1.73
2019-03-18T16:53:53.246Z,1.73
2019-03-18T16:56:26.751Z,1.87
2019-03-18T16:59:00.370Z,1.57
2019-03-18T17:01:34.011Z,2.20
2019-03-18T17:04:07.690Z,2.37
2019-03-18T17:06:41.255Z,2.93
2019-03-18T17:09:14.869Z,2.60
2019-03-18T17:11:48.438Z,1.80
2019-03-18T17:14:22.044Z,2.17
2019-03-18T17:16:55.645Z,2.30
2019-03-18T17:19:30.426Z,2.83
2019-03-18T17:22:04.108Z,2.07
2019-03-18T17:24:38.242Z,3.37
2019-03-18T17:27:11.813Z,2.20
2019-03-18T17:29:45.421Z,2.13
2019-03-18T17:32:19.000Z,2.67
2019-03-18T17:34:52.843Z,2.20
2019-03-18T17:37:26.415Z,2.20
2019-03-18T17:40:00.017Z,2.30
2019-03-18T17:42:33.638Z,2.27
2019-03-18T17:45:09.981Z,3.30
2019-03-18T17:47:43.817Z,3.23
2019-03-18T17:50:30.581Z,2.37
2019-03-18T17:53:04.369Z,2.17
2019-03-18T17:55:39.020Z,2.50
2019-03-18T17:58:12.620Z,2.80
2019-03-18T18:00:56.654Z,2.83
2019-03-18T18:03:30.259Z,2.83
2019-03-18T18:06:03.834Z,1.90
2019-03-18T18:08:37.427Z,2.10
2019-03-18T18:11:12.742Z,2.50
2019-03-18T18:13:46.305Z,2.30
2019-03-18T18:16:19.906Z,2.07
2019-03-18T18:18:53.497Z,2.07
2019-03-18T18:21:27.080Z,2.53
2019-03-18T18:24:00.685Z,2.10
2019-03-18T18:26:34.309Z,2.57
2019-03-18T18:29:09.644Z,1.80
2019-03-18T18:31:43.299Z,2.00
2019-03-18T18:34:16.876Z,2.43
2019-03-18T18:36:50.557Z,1.93
2019-03-18T18:39:24.131Z,2.17
2019-03-18T18:41:57.728Z,2.77
2019-03-18T18:44:31.294Z,2.53
2019-03-18T18:47:04.981Z,2.30
2019-03-18T18:49:38.553Z,2.50
2019-03-18T18:52:12.157Z,2.30
2019-03-18T18:54:46.033Z,1.93
2019-03-18T18:57:19.541Z,2.40
2019-03-18T18:59:53.213Z,2.97
2019-03-18T19:02:26.784Z,2.83
2019-03-18T19:05:00.649Z,2.83
2019-03-18T19:07:34.154Z,2.43
2019-03-18T19:10:14.613Z,2.63
2019-03-18T19:12:48.253Z,2.80
2019-03-18T19:15:30.672Z,2.60
2019-03-18T19:18:04.306Z,3.57
2019-03-18T19:20:37.917Z,2.30
2019-03-18T19:23:11.491Z,2.40
2019-03-18T19:25:45.361Z,2.73
2019-03-18T19:28:19.221Z,2.33
2019-03-18T19:30:54.077Z,2.63
2019-03-18T19:33:27.593Z,2.73
2019-03-18T19:36:01.282Z,2.27
2019-03-18T19:38:34.854Z,2.90
2019-03-18T19:41:08.469Z,2.10
2019-03-18T19:43:42.077Z,3.10
2019-03-18T19:46:15.654Z,2.07
2019-03-18T19:48:49.258Z,3.77
2019-03-18T19:51:22.859Z,3.17
2019-03-18T19:53:56.464Z,2.23
2019-03-18T19:56:30.036Z,3.03
2019-03-18T19:59:03.729Z,3.27
2019-03-18T20:01:37.352Z,2.83
2019-03-18T20:04:10.943Z,2.97
2019-03-18T20:06:44.518Z,2.47
2019-03-18T20:09:18.271Z,2.93
2019-03-18T20:11:51.883Z,3.40
2019-03-18T20:14:25.453Z,2.47
2019-03-18T20:16:59.050Z,3.00
2019-03-18T20:19:32.653Z,2.30
2019-03-18T20:22:06.261Z,2.70
2019-03-18T20:24:39.798Z,3.50
2019-03-18T20:27:13.299Z,2.43
2019-03-18T20:29:46.904Z,2.93
2019-03-18T20:32:20.746Z,2.60
2019-03-18T20:34:54.331Z,2.73
2019-03-18T20:37:27.906Z,2.93
2019-03-18T20:40:01.508Z,2.50
2019-03-18T20:42:35.086Z,3.53
2019-03-18T20:45:11.408Z,3.07
2019-03-18T20:47:45.024Z,3.00
2019-03-18T20:50:20.813Z,2.77
2019-03-18T20:52:54.475Z,2.47
2019-03-18T20:55:28.103Z,2.67
2019-03-18T20:58:01.765Z,2.57
2019-03-18T21:00:35.413Z,3.07
2019-03-18T21:03:08.337Z,2.70
2019-03-18T21:05:41.895Z,1.97
2019-03-18T21:08:15.447Z,2.27
2019-03-18T21:10:48.947Z,2.77
2019-03-18T21:13:22.553Z,2.47
2019-03-18T21:15:55.834Z,2.50
2019-03-18T21:18:29.733Z,2.93
2019-03-18T21:21:03.455Z,3.13
2019-03-18T21:23:37.059Z,2.37
2019-03-18T21:26:10.620Z,2.63
2019-03-18T21:28:44.205Z,2.47
2019-03-18T21:31:17.779Z,3.00
2019-03-18T21:33:51.399Z,3.53
2019-03-18T21:36:37.095Z,4.10
2019-03-18T21:39:00.216Z,2.33
2019-03-18T21:41:33.789Z,3.00
2019-03-18T21:44:07.541Z,2.60
2019-03-18T21:46:43.316Z,2.53
2019-03-18T21:49:16.479Z,2.30
2019-03-18T21:51:50.124Z,2.40
2019-03-18T21:54:33.731Z,3.40
2019-03-18T21:56:59.437Z,2.30
2019-03-18T21:59:33.040Z,3.00
2019-03-18T22:02:06.872Z,2.90
2019-03-18T22:04:40.446Z,2.63
2019-03-18T22:07:14.314Z,2.77
2019-03-18T22:09:47.805Z,3.40
2019-03-18T22:12:21.682Z,2.73
2019-03-18T22:14:55.239Z,2.53
2019-03-18T22:17:28.852Z,2.80
2019-03-18T22:20:02.475Z,2.67
2019-03-18T22:22:35.998Z,2.87
2019-03-18T22:25:11.241Z,2.53
2019-03-18T22:27:44.919Z,3.03
2019-03-18T22:30:18.987Z,2.57
2019-03-18T22:32:52.590Z,2.63
2019-03-18T22:35:26.252Z,2.67
2019-03-18T22:37:59.979Z,2.97
2019-03-18T22:40:33.839Z,2.53
2019-03-18T22:43:07.475Z,2.50
2019-03-18T22:45:41.109Z,3.13
2019-03-18T22:48:14.699Z,2.80
2019-03-18T22:50:48.271Z,3.47
2019-03-18T22:53:22.324Z,2.93
2019-03-18T22:55:55.597Z,2.80
2019-03-18T22:58:29.167Z,3.00
2019-03-18T23:01:04.483Z,2.80
2019-03-18T23:03:38.121Z,3.00
2019-03-18T23:06:11.720Z,3.20
2019-03-18T23:08:45.303Z,2.43
2019-03-18T23:11:19.244Z,3.27
2019-03-18T23:13:52.831Z,2.53
2019-03-18T23:16:26.439Z,3.97
2019-03-18T23:19:00.003Z,2.67
2019-03-18T23:21:33.595Z,3.07
2019-03-18T23:24:07.192Z,2.80
2019-03-18T23:26:40.791Z,2.60
2019-03-18T23:29:14.371Z,2.97
2019-03-18T23:31:47.962Z,2.27
2019-03-18T23:34:21.538Z,3.30
2019-03-18T23:36:55.151Z,2.90
2019-03-18T23:39:28.720Z,2.77
2019-03-18T23:42:02.384Z,3.80
2019-03-18T23:44:35.874Z,2.40
2019-03-18T23:47:09.858Z,3.33
2019-03-18T23:49:43.419Z,2.60
2019-03-18T23:52:16.947Z,3.07
2019-03-18T23:54:50.547Z,2.70
2019-03-18T23:57:24.185Z,2.80
2019-03-18T23:59:57.757Z,2.53
